Time;durP1;ratioP1;P1;durP2;ratioP2;P2;SDS_P1;SDS_P2;PMS_P1;PMS_P2;Temp;Humidity;BMP_temperature;BMP_pressure;BME280_temperature;BME280_humidity;BME280_pressure;Samples;Min_cycle;Max_cycle;Signal;HPM_P1;HPM_P2
2021/01/27 00:00:31;;;;;;;6.95;3.50;;;2.10;98.00;;;;;;4955035;29;20055;-80
2021/01/27 00:02:59;;;;;;;6.30;3.40;;;2.10;97.90;;;;;;4953326;29;20053;-81
2021/01/27 00:05:30;;;;;;;6.47;3.40;;;2.10;97.70;;;;;;4955035;29;20051;-81
2021/01/27 00:07:57;;;;;;;8.07;3.60;;;2.10;97.70;;;;;;4953471;29;20122;-81
2021/01/27 00:10:24;;;;;;;6.25;3.50;;;2.20;97.60;;;;;;4958157;29;20138;-81
2021/01/27 00:12:50;;;;;;;7.68;3.33;;;2.10;97.60;;;;;;4948304;29;20103;-82
2021/01/27 00:15:22;;;;;;;8.13;3.45;;;2.20;97.50;;;;;;4944174;29;20126;-81
2021/01/27 00:17:49;;;;;;;6.60;3.30;;;2.20;97.40;;;;;;4944622;29;20138;-81
2021/01/27 00:20:21;;;;;;;7.20;3.20;;;2.20;97.30;;;;;;4954892;29;20137;-81
2021/01/27 00:22:48;;;;;;;6.32;3.47;;;2.30;97.20;;;;;;4954344;29;20138;-80
2021/01/27 00:25:18;;;;;;;6.63;3.05;;;2.20;97.20;;;;;;4939066;29;20154;-80
2021/01/27 00:27:44;;;;;;;7.53;3.22;;;2.30;97.00;;;;;;4937408;29;20079;-80
2021/01/27 00:30:13;;;;;;;6.13;3.03;;;2.30;97.00;;;;;;4935396;29;20054;-80
2021/01/27 00:32:40;;;;;;;6.55;3.20;;;2.30;96.90;;;;;;4935149;29;20611;-81
2021/01/27 00:35:09;;;;;;;8.23;3.00;;;2.30;96.90;;;;;;4936973;29;20138;-80
2021/01/27 00:37:36;;;;;;;6.28;3.35;;;2.30;96.80;;;;;;4941434;29;20060;-79
2021/01/27 00:40:04;;;;;;;6.20;3.08;;;2.30;96.80;;;;;;4935109;29;20412;-80
2021/01/27 00:42:30;;;;;;;5.40;3.10;;;2.50;96.70;;;;;;4936290;29;20055;-79
2021/01/27 00:44:57;;;;;;;6.35;3.10;;;2.50;96.40;;;;;;4935274;29;20079;-80
2021/01/27 00:47:24;;;;;;;8.43;2.90;;;2.60;96.50;;;;;;4937158;29;20057;-80
2021/01/27 00:49:50;;;;;;;6.70;3.03;;;2.50;96.30;;;;;;4934992;29;20135;-79
2021/01/27 00:52:18;;;;;;;6.85;2.75;;;2.50;96.30;;;;;;4935049;29;20195;-79
2021/01/27 00:54:44;;;;;;;6.28;3.10;;;2.60;96.10;;;;;;4934383;29;20564;-80
2021/01/27 00:57:11;;;;;;;6.30;2.78;;;2.60;95.90;;;;;;4942283;29;20122;-79
2021/01/27 00:59:37;;;;;;;5.60;3.13;;;2.60;95.80;;;;;;4953924;29;20054;-79
2021/01/27 01:02:04;;;;;;;6.85;3.00;;;2.70;95.90;;;;;;4953463;29;20134;-80
2021/01/27 01:04:30;;;;;;;5.47;2.78;;;2.70;95.80;;;;;;4953732;29;20137;-79
2021/01/27 01:06:57;;;;;;;6.28;2.90;;;2.70;95.90;;;;;;4952472;29;20115;-80
2021/01/27 01:09:24;;;;;;;6.65;2.90;;;2.70;95.80;;;;;;4953848;29;20568;-80
2021/01/27 01:11:51;;;;;;;6.75;3.05;;;2.60;95.70;;;;;;4951398;29;20134;-81
2021/01/27 01:14:17;;;;;;;6.97;3.10;;;2.70;95.80;;;;;;4947919;29;20134;-81
2021/01/27 01:16:44;;;;;;;6.40;3.08;;;2.60;95.70;;;;;;4941919;29;20146;-81
2021/01/27 01:19:11;;;;;;;6.10;3.13;;;2.60;95.80;;;;;;4953646;29;20054;-81
2021/01/27 01:21:38;;;;;;;6.28;3.35;;;2.50;95.70;;;;;;4952801;29;20549;-81
2021/01/27 01:24:07;;;;;;;6.97;3.90;;;2.40;95.80;;;;;;4953885;29;20501;-81
2021/01/27 01:26:34;;;;;;;7.72;3.83;;;2.40;95.90;;;;;;4939678;29;20135;-81
2021/01/27 01:29:01;;;;;;;7.10;4.00;;;2.50;96.00;;;;;;4935566;29;20134;-81
2021/01/27 01:31:27;;;;;;;8.18;3.65;;;2.40;96.00;;;;;;4946800;29;20141;-81
2021/01/27 01:33:54;;;;;;;7.72;3.85;;;2.30;96.20;;;;;;4953332;29;20055;-79
2021/01/27 01:36:20;;;;;;;8.52;3.78;;;2.40;96.40;;;;;;4953614;29;20134;-80
2021/01/27 01:38:47;;;;;;;7.40;3.70;;;2.20;96.40;;;;;;4936046;29;20047;-80
2021/01/27 01:41:13;;;;;;;6.82;3.50;;;2.10;96.50;;;;;;4943138;29;20134;-81
2021/01/27 01:43:42;;;;;;;9.10;4.05;;;2.20;96.60;;;;;;4951768;29;20086;-81
2021/01/27 01:46:15;;;;;;;7.28;3.60;;;2.20;96.70;;;;;;4952675;29;20070;-81
2021/01/27 01:48:46;;;;;;;6.47;3.67;;;2.30;96.70;;;;;;4936082;29;20593;-81
2021/01/27 01:51:18;;;;;;;9.65;3.70;;;2.30;96.60;;;;;;4934121;29;20047;-81
2021/01/27 01:53:49;;;;;;;6.80;3.53;;;2.40;96.50;;;;;;4933938;29;20146;-81
2021/01/27 01:56:19;;;;;;;6.40;3.40;;;2.40;96.40;;;;;;4935272;29;20139;-81
2021/01/27 01:58:47;;;;;;;6.53;3.45;;;2.50;96.20;;;;;;4935507;29;20138;-81
2021/01/27 02:01:14;;;;;;;6.13;3.30;;;2.40;96.20;;;;;;4952994;29;20141;-81
2021/01/27 02:03:43;;;;;;;7.80;3.72;;;2.40;96.30;;;;;;4952761;29;20055;-81
2021/01/27 02:06:12;;;;;;;8.18;3.70;;;2.40;96.40;;;;;;4915557;29;20119;-81
2021/01/27 02:08:44;;;;;;;6.50;3.50;;;2.40;96.40;;;;;;4936637;29;20071;-81
2021/01/27 02:11:12;;;;;;;7.10;3.60;;;2.40;96.40;;;;;;4952332;29;20106;-82
2021/01/27 02:14:16;;;;;;;7.47;4.03;;;2.40;96.50;;;;;;4927775;29;20051;-81
2021/01/27 02:16:51;;;;;;;7.25;3.47;;;2.20;96.70;;;;;;4922202;29;20082;-81
2021/01/27 02:20:15;;;;;;;7.03;3.65;;;2.20;96.90;;;;;;4941211;29;20130;-81
2021/01/27 02:23:24;;;;;;;7.90;4.22;;;2.10;96.90;;;;;;4936782;29;20498;-81
2021/01/27 02:26:03;;;;;;;7.53;3.55;;;2.10;96.70;;;;;;4933586;29;20143;-81
2021/01/27 02:29:13;;;;;;;6.88;4.30;;;2.00;96.90;;;;;;4947539;29;20059;-81
2021/01/27 02:31:44;;;;;;;7.07;3.40;;;2.10;96.90;;;;;;4936209;29;20142;-80
2021/01/27 02:34:57;;;;;;;8.90;4.15;;;2.10;96.60;;;;;;4933488;29;20586;-80
2021/01/27 02:37:29;;;;;;;7.65;4.10;;;2.10;96.50;;;;;;4920084;29;20458;-81
2021/01/27 02:40:03;;;;;;;9.52;4.10;;;2.20;96.40;;;;;;4917222;29;20052;-80
2021/01/27 02:42:36;;;;;;;7.87;4.33;;;2.20;96.20;;;;;;4934226;29;20059;-82
2021/01/27 02:45:11;;;;;;;7.75;4.15;;;2.20;96.10;;;;;;4933119;29;20135;-82
2021/01/27 02:47:45;;;;;;;8.52;3.80;;;2.20;96.00;;;;;;4939870;29;20055;-82
2021/01/27 02:50:20;;;;;;;6.85;3.92;;;2.20;96.00;;;;;;4950705;29;20094;-80
2021/01/27 02:52:51;;;;;;;6.95;3.72;;;2.20;96.20;;;;;;4955154;28;20138;-80
2021/01/27 02:55:21;;;;;;;8.05;3.45;;;2.20;96.00;;;;;;4956370;29;20055;-80
2021/01/27 02:57:55;;;;;;;7.82;3.85;;;2.30;96.20;;;;;;4948385;29;20056;-81
2021/01/27 03:00:26;;;;;;;8.05;4.28;;;2.20;96.30;;;;;;4936746;29;20128;-80
2021/01/27 03:02:59;;;;;;;8.75;3.85;;;2.20;96.40;;;;;;4939849;29;20056;-80
2021/01/27 03:05:31;;;;;;;7.70;3.95;;;2.10;96.50;;;;;;4946763;29;20059;-80
2021/01/27 03:08:03;;;;;;;6.13;3.88;;;2.10;96.60;;;;;;4946987;29;20138;-80
2021/01/27 03:10:35;;;;;;;7.82;3.60;;;2.20;96.60;;;;;;4957947;29;20043;-80
2021/01/27 03:13:03;;;;;;;7.80;3.78;;;2.10;96.20;;;;;;4939477;29;20122;-80
2021/01/27 03:15:29;;;;;;;9.20;3.88;;;2.10;96.30;;;;;;4958207;29;20051;-80
2021/01/27 03:18:00;;;;;;;10.15;4.57;;;2.10;96.20;;;;;;4957116;29;20047;-80
2021/01/27 03:20:33;;;;;;;7.78;4.80;;;2.10;96.50;;;;;;4944214;29;20134;-81
2021/01/27 03:23:09;;;;;;;9.38;4.78;;;2.10;96.90;;;;;;4939229;29;20147;-80
2021/01/27 03:25:44;;;;;;;9.05;4.95;;;2.10;97.00;;;;;;4938116;29;20545;-80
2021/01/27 03:28:17;;;;;;;8.65;5.03;;;2.10;97.10;;;;;;4939043;29;20138;-81
2021/01/27 03:30:44;;;;;;;9.68;3.92;;;2.10;96.70;;;;;;4939441;29;20446;-80
2021/01/27 03:33:16;;;;;;;7.20;3.75;;;2.20;96.30;;;;;;4957517;29;20493;-80
2021/01/27 03:35:49;;;;;;;5.75;3.38;;;2.20;96.20;;;;;;4939866;29;20138;-80
2021/01/27 03:38:20;;;;;;;6.70;3.17;;;2.10;95.80;;;;;;4939536;29;20134;-80
2021/01/27 03:40:51;;;;;;;7.85;3.55;;;2.10;95.80;;;;;;4939444;29;20435;-80
2021/01/27 03:43:24;;;;;;;8.85;4.03;;;2.10;95.40;;;;;;4957356;29;20478;-80
2021/01/27 03:45:55;;;;;;;7.53;3.33;;;2.00;95.40;;;;;;4957437;29;20159;-80
2021/01/27 03:48:29;;;;;;;5.63;3.05;;;2.00;95.60;;;;;;4956212;29;20138;-80
2021/01/27 03:50:59;;;;;;;7.03;2.97;;;2.00;95.40;;;;;;4954622;29;20481;-80
2021/01/27 03:53:27;;;;;;;8.85;4.28;;;2.10;95.30;;;;;;4957600;29;20138;-80
2021/01/27 03:56:01;;;;;;;8.05;3.47;;;2.10;95.30;;;;;;4957415;29;20047;-80
2021/01/27 03:58:33;;;;;;;8.27;3.97;;;2.10;95.20;;;;;;4957266;29;20133;-80
2021/01/27 04:01:06;;;;;;;5.43;3.00;;;2.10;95.60;;;;;;4955238;29;20130;-81
2021/01/27 04:03:33;;;;;;;7.03;3.55;;;2.10;95.60;;;;;;4949621;28;20087;-81
2021/01/27 04:06:02;;;;;;;8.35;4.20;;;2.20;96.00;;;;;;4944246;29;20122;-81
2021/01/27 04:08:28;;;;;;;7.10;3.17;;;2.00;95.80;;;;;;4935864;29;20163;-80
2021/01/27 04:10:55;;;;;;;8.68;3.90;;;2.00;95.70;;;;;;4938603;29;20057;-80
2021/01/27 04:13:22;;;;;;;7.55;3.72;;;1.90;95.80;;;;;;4939818;29;20047;-81
2021/01/27 04:15:49;;;;;;;6.85;3.58;;;1.80;96.20;;;;;;4942550;29;20144;-80
2021/01/27 04:18:16;;;;;;;7.97;4.10;;;1.70;96.40;;;;;;4941586;29;20083;-81
2021/01/27 04:20:42;;;;;;;8.75;4.15;;;1.60;96.80;;;;;;4959947;29;20130;-80
2021/01/27 04:23:10;;;;;;;7.28;3.80;;;1.70;97.10;;;;;;4946836;29;20560;-81
2021/01/27 04:25:37;;;;;;;9.38;3.83;;;1.70;97.00;;;;;;4948322;29;20071;-81
2021/01/27 04:28:04;;;;;;;8.63;4.13;;;1.70;97.00;;;;;;4949853;29;20075;-81
2021/01/27 04:30:34;;;;;;;12.30;6.53;;;1.70;97.00;;;;;;4948678;29;20078;-80
2021/01/27 04:33:03;;;;;;;17.75;7.63;;;1.80;97.20;;;;;;4960715;29;20075;-81
2021/01/27 04:35:31;;;;;;;16.60;7.47;;;1.80;97.30;;;;;;4942923;29;20035;-81
2021/01/27 04:37:58;;;;;;;9.05;4.50;;;1.80;97.60;;;;;;4945321;29;20509;-81
2021/01/27 04:40:30;;;;;;;8.60;4.32;;;1.80;97.70;;;;;;4944832;29;20146;-80
2021/01/27 04:42:57;;;;;;;8.73;3.90;;;1.80;97.70;;;;;;4935110;29;20731;-82
2021/01/27 04:45:25;;;;;;;9.38;4.10;;;1.90;97.60;;;;;;4935295;29;20138;-81
2021/01/27 04:47:58;;;;;;;7.75;4.20;;;1.90;97.50;;;;;;4940204;29;20211;-81
2021/01/27 04:50:31;;;;;;;8.23;3.80;;;1.90;97.50;;;;;;4939622;29;20057;-81
2021/01/27 04:53:28;;;;;;;7.15;3.45;;;2.00;97.20;;;;;;4935210;29;20138;-81
2021/01/27 04:56:24;;;;;;;7.45;3.60;;;1.90;96.90;;;;;;4935582;29;20143;-81
2021/01/27 04:58:59;;;;;;;7.18;3.80;;;1.90;96.70;;;;;;4935028;29;20569;-80
2021/01/27 05:02:13;;;;;;;6.90;3.42;;;2.00;96.60;;;;;;4940303;29;20142;-81
2021/01/27 05:04:59;;;;;;;7.68;3.78;;;2.00;96.40;;;;;;4924478;29;20521;-81
2021/01/27 05:07:34;;;;;;;5.57;3.47;;;2.00;96.30;;;;;;4934552;29;20135;-81
2021/01/27 05:10:02;;;;;;;;;;;2.10;96.30;;;;;;4935030;29;20054;-81
2021/01/27 05:12:41;;;;;;;6.85;3.40;;;2.10;96.20;;;;;;4934353;29;19981;-83
2021/01/27 05:15:11;;;;;;;7.85;3.65;;;2.00;96.20;;;;;;4934369;29;20051;-84
2021/01/27 05:17:42;;;;;;;6.68;3.65;;;2.00;96.50;;;;;;4942315;29;20050;-84
2021/01/27 05:20:11;;;;;;;7.32;3.60;;;1.90;96.20;;;;;;4953937;29;20151;-80
2021/01/27 05:22:39;;;;;;;8.55;3.60;;;1.80;96.50;;;;;;4954591;23;20100;-89
2021/01/27 05:25:12;;;;;;;10.70;4.13;;;1.70;96.70;;;;;;4938627;29;20053;-91
2021/01/27 05:27:43;;;;;;;7.53;3.58;;;1.60;97.00;;;;;;4955645;29;20142;-91
2021/01/27 05:30:24;;;;;;;8.40;4.05;;;1.60;97.30;;;;;;4938044;29;20405;-91
2021/01/27 05:32:54;;;;;;;7.57;3.80;;;1.50;97.40;;;;;;4942411;29;20052;-90
2021/01/27 05:35:33;;;;;;;9.35;4.00;;;1.40;97.60;;;;;;4952530;29;20051;-90
2021/01/27 05:38:18;;;;;;;8.70;4.32;;;1.50;97.60;;;;;;4954722;29;20134;-91
2021/01/27 05:40:45;;;;;;;6.53;3.35;;;1.60;97.60;;;;;;4955193;29;20086;-91
2021/01/27 05:43:15;;;;;;;8.35;4.00;;;1.70;97.50;;;;;;4954542;29;20055;-90
2021/01/27 05:45:44;;;;;;;9.40;3.70;;;1.70;97.60;;;;;;4954752;29;20078;-91
2021/01/27 05:48:22;;;;;;;7.95;3.72;;;1.70;97.70;;;;;;4921674;29;20135;-93
2021/01/27 05:50:50;;;;;;;8.20;3.70;;;1.80;97.70;;;;;;4936449;29;20085;-91
2021/01/27 05:53:20;;;;;;;7.40;3.70;;;1.80;97.70;;;;;;4940300;29;20124;-92
2021/01/27 05:56:04;;;;;;;7.07;3.80;;;1.80;97.50;;;;;;4949575;29;20497;-93
2021/01/27 05:58:35;;;;;;;7.88;3.75;;;1.80;97.40;;;;;;4946122;29;20607;-93
2021/01/27 06:01:32;;;;;;;6.32;3.60;;;1.90;96.90;;;;;;4946140;29;20075;-94
2021/01/27 06:04:04;;;;;;;6.32;3.55;;;1.90;96.70;;;;;;4891700;29;20111;-94
2021/01/27 06:06:34;;;;;;;7.38;3.60;;;2.00;96.20;;;;;;4936710;29;20134;-91
2021/01/27 06:09:07;;;;;;;6.82;3.67;;;2.00;96.10;;;;;;4940956;29;20138;-92
2021/01/27 06:11:34;;;;;;;8.48;3.70;;;2.00;96.00;;;;;;4936893;29;20537;-94
2021/01/27 06:14:09;;;;;;;7.68;3.53;;;2.10;95.80;;;;;;4929537;29;20557;-95
2021/01/27 06:16:43;;;;;;;;;;;2.00;96.30;;;;;;4936082;29;20075;-92
2021/01/27 06:19:12;;;;;;;6.18;3.85;;;1.80;96.90;;;;;;4948014;29;19934;-93
2021/01/27 06:22:13;;;;;;;9.20;4.13;;;1.70;97.50;;;;;;4939873;29;20143;-92
2021/01/27 06:24:55;;;;;;;8.20;3.72;;;1.50;97.90;;;;;;4921087;29;20146;-92
2021/01/27 06:28:12;;;;;;;7.38;4.25;;;1.40;98.00;;;;;;4945827;29;20429;-92
2021/01/27 06:31:14;;;;;;;8.15;4.63;;;1.40;98.10;;;;;;4946287;29;20099;-92
2021/01/27 06:34:23;;;;;;;7.22;4.53;;;1.50;98.00;;;;;;4923491;29;20469;-93
2021/01/27 06:37:07;;;;;;;8.27;4.20;;;1.60;97.90;;;;;;4939885;29;20086;-94
2021/01/27 06:40:11;;;;;;;8.27;4.50;;;1.50;97.80;;;;;;4939887;29;20071;-93
2021/01/27 06:43:04;;;;;;;8.10;4.28;;;1.50;98.00;;;;;;4923985;29;20068;-92
2021/01/27 06:45:41;;;;;;;10.23;4.20;;;1.40;97.90;;;;;;4922625;29;20052;-94
2021/01/27 06:48:49;;;;;;;7.05;3.92;;;1.50;98.10;;;;;;4938688;29;20052;-95
2021/01/27 06:51:46;;;;;;;8.73;4.40;;;1.40;98.00;;;;;;4922808;29;20485;-94
2021/01/27 06:54:42;;;;;;;10.38;4.13;;;1.40;98.10;;;;;;4920418;29;20624;-94
2021/01/27 06:57:19;;;;;;;9.13;4.57;;;1.30;98.30;;;;;;4937754;29;20048;-94
2021/01/27 07:00:21;;;;;;;5.80;3.50;;;1.20;98.40;;;;;;4921053;29;20084;-94
2021/01/27 07:04:01;;;;;;;8.18;3.88;;;1.20;98.40;;;;;;4938073;29;20061;-92
2021/01/27 07:06:58;;;;;;;8.20;4.10;;;1.20;98.60;;;;;;4918660;29;20059;-91
2021/01/27 07:09:48;;;;;;;6.90;3.70;;;1.20;98.40;;;;;;4938337;29;20412;-92
2021/01/27 07:12:25;;;;;;;7.63;3.90;;;1.10;98.60;;;;;;4939583;29;20083;-93
2021/01/27 07:15:32;;;;;;;10.30;4.78;;;1.20;98.50;;;;;;4939793;29;20044;-94
2021/01/27 07:19:00;;;;;;;9.02;4.55;;;1.30;98.30;;;;;;4940767;29;20093;-94
2021/01/27 07:21:32;;;;;;;7.88;4.75;;;1.40;98.20;;;;;;4902567;29;20471;-92
2021/01/27 07:24:09;;;;;;;9.15;4.05;;;1.40;97.90;;;;;;4957271;29;20154;-94
2021/01/27 07:26:40;;;;;;;9.15;4.60;;;1.40;97.70;;;;;;4924195;29;20047;-94
2021/01/27 07:29:13;;;;;;;7.85;4.38;;;1.40;97.80;;;;;;4957464;29;20510;-94
2021/01/27 07:31:45;;;;;;;8.85;4.38;;;1.50;97.70;;;;;;4938209;29;20070;-92
2021/01/27 07:34:20;;;;;;;7.68;4.20;;;1.60;97.60;;;;;;4939923;29;20052;-93
2021/01/27 07:37:01;;;;;;;7.10;4.00;;;1.60;97.40;;;;;;4938713;29;20244;-91
2021/01/27 07:39:40;;;;;;;6.97;4.05;;;1.60;97.10;;;;;;4921905;29;20512;-93
2021/01/27 07:42:17;;;;;;;7.95;3.97;;;1.60;97.10;;;;;;4946394;29;20183;-93
2021/01/27 07:44:49;;;;;;;7.20;3.78;;;1.60;97.10;;;;;;4919006;29;20057;-96
2021/01/27 07:47:29;;;;;;;8.73;3.85;;;1.60;96.90;;;;;;4966674;29;20134;-93
2021/01/27 07:49:58;;;;;;;6.43;3.67;;;1.60;96.80;;;;;;4960638;29;20065;-93
2021/01/27 07:52:31;;;;;;;6.15;3.50;;;1.60;96.90;;;;;;4942354;29;20055;-93
2021/01/27 07:55:09;;;;;;;8.85;3.40;;;1.60;97.30;;;;;;4958239;29;20082;-93
2021/01/27 07:57:51;;;;;;;8.70;4.32;;;1.60;97.50;;;;;;4958211;29;20501;-94
2021/01/27 08:00:23;;;;;;;8.40;3.90;;;1.60;98.00;;;;;;4929913;29;20056;-90
2021/01/27 08:03:20;;;;;;;6.63;3.60;;;1.50;98.50;;;;;;4937329;29;20138;-93
2021/01/27 08:05:49;;;;;;;7.85;3.70;;;1.40;99.10;;;;;;4920315;29;20139;-92
2021/01/27 08:08:21;;;;;;;8.32;3.88;;;1.50;99.40;;;;;;4919918;29;20493;-92
2021/01/27 08:10:51;;;;;;;6.85;4.00;;;1.40;99.40;;;;;;4937658;29;20479;-93
2021/01/27 08:13:37;;;;;;;6.68;4.10;;;1.50;99.60;;;;;;4937832;29;20052;-93
2021/01/27 08:16:26;;;;;;;8.80;3.92;;;1.30;99.90;;;;;;4927913;29;20117;-93
2021/01/27 08:19:24;;;;;;;8.52;3.72;;;1.40;99.90;;;;;;4923608;29;20055;-93
2021/01/27 08:22:03;;;;;;;6.90;4.25;;;1.40;99.90;;;;;;4932748;29;20066;-92
2021/01/27 08:24:57;;;;;;;7.75;4.22;;;1.30;99.90;;;;;;4950097;29;20055;-92
2021/01/27 08:27:38;;;;;;;6.68;4.05;;;1.30;99.90;;;;;;4940444;29;20127;-94
2021/01/27 08:30:21;;;;;;;7.10;4.05;;;1.40;99.90;;;;;;4950953;29;20527;-94
2021/01/27 08:32:48;;;;;;;10.52;4.05;;;1.50;99.90;;;;;;4939017;29;20523;-93
2021/01/27 08:35:54;;;;;;;6.85;4.40;;;1.60;99.90;;;;;;4938584;29;20138;-92
2021/01/27 08:38:27;;;;;;;7.60;3.80;;;1.60;99.90;;;;;;4955677;29;20564;-93
2021/01/27 08:40:55;;;;;;;8.93;4.60;;;1.70;99.90;;;;;;4955756;29;20106;-92
2021/01/27 08:43:29;;;;;;;7.45;4.15;;;1.80;99.90;;;;;;4968882;29;20070;-91
2021/01/27 08:45:56;;;;;;;9.35;4.30;;;1.80;99.90;;;;;;4951387;29;20079;-93
2021/01/27 08:48:49;;;;;;;10.18;4.40;;;1.80;99.90;;;;;;4934692;29;20139;-94
2021/01/27 08:51:49;;;;;;;7.50;4.20;;;1.90;99.90;;;;;;4949938;29;20071;-93
2021/01/27 08:54:49;;;;;;;8.27;4.32;;;2.00;99.90;;;;;;4947736;29;20051;-93
2021/01/27 08:57:22;;;;;;;7.13;4.28;;;2.10;99.90;;;;;;4937719;29;20084;-94
2021/01/27 09:00:09;;;;;;;9.05;4.18;;;2.10;99.90;;;;;;4967811;29;20070;-93
2021/01/27 09:02:56;;;;;;;6.97;3.97;;;2.20;99.90;;;;;;4943982;29;20051;-93
2021/01/27 09:05:39;;;;;;;8.20;3.90;;;2.30;99.90;;;;;;4938452;29;20047;-93
2021/01/27 09:08:29;;;;;;;9.00;4.00;;;2.40;99.90;;;;;;4953931;29;20075;-93
2021/01/27 09:10:59;;;;;;;7.40;3.90;;;2.40;99.90;;;;;;4939404;29;20065;-92
2021/01/27 09:13:36;;;;;;;8.13;4.30;;;2.70;99.90;;;;;;4935565;29;20051;-94
2021/01/27 09:16:07;;;;;;;7.80;4.13;;;2.70;99.90;;;;;;4956955;29;20493;-93
2021/01/27 09:18:35;;;;;;;8.35;3.72;;;2.60;99.90;;;;;;4955035;29;20062;-95
2021/01/27 09:21:12;;;;;;;7.75;3.58;;;2.70;99.90;;;;;;4937737;29;20138;-92
2021/01/27 09:23:40;;;;;;;6.00;3.20;;;2.70;99.90;;;;;;4954656;29;20059;-94
2021/01/27 09:26:15;;;;;;;8.13;3.88;;;2.70;99.90;;;;;;4955354;29;20051;-93
2021/01/27 09:28:44;;;;;;;7.32;3.72;;;2.80;99.90;;;;;;4955084;29;20560;-92
2021/01/27 09:31:17;;;;;;;6.55;3.58;;;2.80;99.90;;;;;;4949111;29;20070;-92
2021/01/27 09:33:44;;;;;;;8.52;3.70;;;2.80;99.90;;;;;;4944095;29;20105;-93
2021/01/27 09:36:16;;;;;;;7.13;3.50;;;2.80;99.90;;;;;;4938145;29;20560;-92
2021/01/27 09:38:43;;;;;;;7.50;3.17;;;3.00;99.90;;;;;;4922082;29;20051;-92
2021/01/27 09:41:14;;;;;;;6.47;3.13;;;2.90;99.90;;;;;;4953388;29;20142;-93
2021/01/27 09:43:45;;;;;;;4.90;3.05;;;2.90;99.90;;;;;;4954410;29;20658;-92
2021/01/27 09:46:25;;;;;;;7.05;3.70;;;3.00;99.90;;;;;;4938117;29;20083;-92
2021/01/27 09:48:54;;;;;;;5.93;3.50;;;3.00;99.90;;;;;;4955137;29;20051;-90
2021/01/27 09:51:22;;;;;;;5.93;3.42;;;3.10;99.90;;;;;;4937792;29;20055;-91
2021/01/27 09:53:55;;;;;;;5.15;3.33;;;3.10;99.90;;;;;;4954557;29;20134;-91
2021/01/27 09:56:22;;;;;;;6.38;3.00;;;3.00;99.90;;;;;;4949772;29;20051;-91
2021/01/27 09:58:51;;;;;;;4.45;2.50;;;3.10;99.90;;;;;;4918646;29;20078;-91
2021/01/27 10:01:23;;;;;;;4.88;2.50;;;3.20;99.90;;;;;;4935063;29;20136;-92
2021/01/27 10:03:53;;;;;;;6.05;2.60;;;3.10;99.90;;;;;;4935317;29;20164;-91
2021/01/27 10:06:37;;;;;;;4.15;2.40;;;3.20;99.90;;;;;;4948263;29;20079;-92
2021/01/27 10:09:15;;;;;;;7.05;2.47;;;3.20;99.90;;;;;;4958440;29;20054;-92
2021/01/27 10:11:43;;;;;;;5.57;2.33;;;3.20;99.90;;;;;;4954886;29;20142;-92
2021/01/27 10:14:15;;;;;;;5.15;2.45;;;3.20;99.90;;;;;;4954877;29;20059;-91
2021/01/27 10:16:56;;;;;;;4.85;2.40;;;3.20;99.90;;;;;;4954433;29;20051;-91
2021/01/27 10:19:27;;;;;;;4.18;1.80;;;3.10;99.90;;;;;;4953533;29;20047;-92
2021/01/27 10:21:57;;;;;;;4.72;2.10;;;3.10;99.90;;;;;;4954229;29;20143;-91
2021/01/27 10:24:50;;;;;;;4.78;1.98;;;3.00;99.90;;;;;;4954601;28;20119;-92
2021/01/27 10:27:24;;;;;;;3.83;1.80;;;3.20;99.90;;;;;;4955701;29;20122;-92
2021/01/27 10:29:52;;;;;;;4.70;1.88;;;3.10;99.90;;;;;;4955585;28;20063;-92
2021/01/27 10:32:34;;;;;;;3.78;1.70;;;3.20;99.90;;;;;;4946191;29;20138;-92
2021/01/27 10:35:02;;;;;;;4.25;1.88;;;3.30;99.90;;;;;;4938479;29;20040;-92
2021/01/27 10:37:35;;;;;;;5.53;2.10;;;3.30;99.70;;;;;;4903815;29;20056;-92
2021/01/27 10:40:23;;;;;;;5.15;2.00;;;3.30;99.90;;;;;;4936486;29;20096;-91
2021/01/27 10:42:52;;;;;;;4.30;1.77;;;3.40;99.90;;;;;;4955200;28;20495;-92
2021/01/27 10:45:37;;;;;;;4.32;1.83;;;3.50;99.90;;;;;;4954297;28;20068;-91
2021/01/27 10:48:15;;;;;;;4.15;1.83;;;3.50;99.60;;;;;;4937088;29;20054;-93
2021/01/27 10:50:45;;;;;;;4.50;1.80;;;3.50;99.60;;;;;;4951819;29;20059;-90
2021/01/27 10:53:15;;;;;;;4.18;2.08;;;3.60;99.40;;;;;;4937420;29;20055;-91
2021/01/27 10:55:46;;;;;;;4.60;1.88;;;3.70;99.40;;;;;;4954115;29;20473;-92
2021/01/27 10:58:16;;;;;;;4.15;1.70;;;3.70;99.30;;;;;;4937123;29;20077;-92
2021/01/27 11:00:45;;;;;;;3.65;1.45;;;3.80;99.10;;;;;;4953940;29;20061;-92
2021/01/27 11:03:13;;;;;;;3.58;1.70;;;3.70;99.20;;;;;;4954082;29;20055;-93
2021/01/27 11:05:41;;;;;;;3.88;1.63;;;3.80;99.00;;;;;;4953596;29;20059;-93
2021/01/27 11:08:13;;;;;;;3.90;1.67;;;3.80;98.60;;;;;;4937646;29;20114;-92
2021/01/27 11:10:40;;;;;;;3.83;1.70;;;3.80;98.80;;;;;;4937359;29;20505;-92
2021/01/27 11:13:07;;;;;;;3.65;1.65;;;3.80;98.30;;;;;;4957302;28;20119;-92
2021/01/27 11:15:34;;;;;;;3.45;1.60;;;3.80;98.50;;;;;;4966572;29;20078;-93
2021/01/27 11:18:03;;;;;;;5.88;1.90;;;3.80;98.70;;;;;;4933477;29;20055;-93
2021/01/27 11:20:30;;;;;;;4.50;1.80;;;3.70;98.30;;;;;;4951199;29;20055;-94
2021/01/27 11:22:56;;;;;;;9.75;4.72;;;3.90;98.40;;;;;;4948822;29;20087;-93
2021/01/27 11:25:28;;;;;;;4.22;2.17;;;3.70;98.40;;;;;;4966345;29;20143;-92
2021/01/27 11:27:55;;;;;;;3.85;1.90;;;3.60;98.40;;;;;;4967814;29;20059;-92
2021/01/27 11:30:27;;;;;;;4.72;1.75;;;3.60;98.70;;;;;;4964438;29;20150;-92
2021/01/27 11:32:55;;;;;;;3.53;1.40;;;3.60;98.80;;;;;;4948408;29;20051;-92
2021/01/27 11:35:24;;;;;;;4.18;1.92;;;3.80;98.60;;;;;;4964537;29;20044;-91
2021/01/27 11:37:51;;;;;;;4.90;2.00;;;3.60;98.70;;;;;;4964965;29;20133;-94
2021/01/27 11:40:22;;;;;;;4.80;2.08;;;3.60;98.70;;;;;;4964205;29;20077;-93
2021/01/27 11:42:49;;;;;;;3.42;1.90;;;3.60;98.60;;;;;;4957705;29;20059;-93
2021/01/27 11:45:19;;;;;;;4.07;1.90;;;3.70;98.60;;;;;;4940687;29;20055;-94
2021/01/27 11:47:46;;;;;;;4.10;1.73;;;3.70;99.00;;;;;;4957086;29;20059;-93
2021/01/27 11:50:14;;;;;;;4.75;2.00;;;3.80;98.90;;;;;;4955756;29;20138;-93
2021/01/27 11:52:43;;;;;;;5.32;2.00;;;3.80;98.80;;;;;;4942924;29;20049;-94
2021/01/27 11:55:11;;;;;;;6.13;2.08;;;3.90;98.50;;;;;;4940528;29;20605;-94
2021/01/27 11:57:37;;;;;;;4.78;2.03;;;4.00;98.70;;;;;;4955937;29;20079;-94
2021/01/27 12:00:06;;;;;;;4.28;2.10;;;4.10;98.50;;;;;;4956202;29;20047;-93
2021/01/27 12:02:33;;;;;;;5.32;2.20;;;4.10;98.70;;;;;;4957902;29;20062;-93
2021/01/27 12:05:00;;;;;;;5.80;2.20;;;4.20;98.70;;;;;;4940930;29;20130;-91
2021/01/27 12:07:27;;;;;;;4.95;2.08;;;4.30;98.60;;;;;;4940481;29;20090;-95
2021/01/27 12:09:54;;;;;;;4.45;2.10;;;4.40;98.50;;;;;;4956019;29;20051;-92
2021/01/27 12:12:21;;;;;;;5.32;2.20;;;4.40;98.10;;;;;;4958908;29;20416;-94
2021/01/27 12:14:47;;;;;;;8.75;2.22;;;4.40;98.10;;;;;;4946455;29;20448;-92
2021/01/27 12:17:14;;;;;;;3.90;1.90;;;4.30;97.90;;;;;;4943164;29;20115;-93
2021/01/27 12:19:41;;;;;;;8.05;4.28;;;4.30;97.80;;;;;;4928544;29;20139;-92
2021/01/27 12:22:07;;;;;;;6.35;2.90;;;4.30;97.20;;;;;;4937843;29;20059;-93
2021/01/27 12:24:34;;;;;;;5.28;2.42;;;4.20;97.10;;;;;;4922926;29;20420;-94
2021/01/27 12:27:02;;;;;;;17.45;7.53;;;4.10;97.80;;;;;;4929897;29;20055;-93
2021/01/27 12:29:28;;;;;;;7.38;3.10;;;3.90;97.10;;;;;;4944637;29;20134;-93
2021/01/27 12:31:55;;;;;;;5.60;2.38;;;3.80;97.40;;;;;;4943214;29;20308;-93
2021/01/27 12:34:22;;;;;;;4.32;2.28;;;3.80;97.50;;;;;;4943151;29;20075;-91
2021/01/27 12:36:49;;;;;;;5.63;2.20;;;3.60;98.00;;;;;;4938254;29;20264;-93
2021/01/27 12:39:16;;;;;;;5.55;2.40;;;3.70;97.80;;;;;;4937227;29;20058;-93
2021/01/27 12:41:43;;;;;;;4.25;2.30;;;3.70;97.20;;;;;;4904075;29;20553;-94
2021/01/27 12:44:11;;;;;;;4.22;2.00;;;3.70;97.50;;;;;;4957009;29;20142;-91
2021/01/27 12:46:37;;;;;;;4.88;1.92;;;3.80;97.70;;;;;;4956237;29;20078;-93
2021/01/27 12:49:04;;;;;;;5.13;2.30;;;3.80;97.60;;;;;;4938430;29;20043;-90
2021/01/27 12:51:31;;;;;;;4.40;2.35;;;3.90;97.80;;;;;;4938372;29;20130;-93
2021/01/27 12:53:58;;;;;;;3.50;1.70;;;4.10;97.30;;;;;;4916231;29;20522;-93
2021/01/27 12:56:24;;;;;;;4.43;1.95;;;4.10;97.10;;;;;;4919054;29;20374;-93
2021/01/27 12:58:51;;;;;;;5.03;1.92;;;4.10;97.00;;;;;;4935848;29;20138;-94
2021/01/27 13:01:20;;;;;;;4.25;2.05;;;4.20;97.30;;;;;;4935767;29;20142;-88
2021/01/27 13:03:47;;;;;;;4.82;1.88;;;4.20;97.40;;;;;;4935828;29;20395;-93
2021/01/27 13:06:13;;;;;;;3.80;1.88;;;4.20;97.10;;;;;;4935260;29;20118;-92
2021/01/27 13:08:40;;;;;;;3.53;1.50;;;4.30;97.00;;;;;;4922356;29;20063;-94
2021/01/27 13:11:07;;;;;;;3.47;1.77;;;4.00;97.10;;;;;;4938251;29;20131;-94
2021/01/27 13:13:34;;;;;;;4.85;1.60;;;4.10;98.30;;;;;;4935704;29;20142;-92
2021/01/27 13:16:01;;;;;;;4.32;1.70;;;4.00;98.10;;;;;;4936945;29;20138;-93
2021/01/27 13:18:29;;;;;;;4.18;1.90;;;3.70;98.70;;;;;;4957390;29;20129;-94
2021/01/27 13:20:55;;;;;;;3.95;1.70;;;3.90;99.00;;;;;;4953665;29;20138;-93
2021/01/27 13:23:22;;;;;;;4.20;1.90;;;3.90;98.90;;;;;;4935282;29;20056;-92
2021/01/27 13:25:49;;;;;;;3.45;1.70;;;3.90;99.30;;;;;;4907294;29;20047;-92
2021/01/27 13:28:16;;;;;;;3.63;1.80;;;3.90;99.30;;;;;;4936049;29;20924;-91
2021/01/27 13:30:42;;;;;;;3.90;1.88;;;3.80;99.40;;;;;;4944252;29;20082;-92
2021/01/27 13:33:12;;;;;;;4.35;2.10;;;3.90;99.50;;;;;;4951332;29;20050;-92